createdAt,value
2022-09-10T00:04:34.236Z,100744.38
2022-09-10T00:09:35.937Z,100745.50
2022-09-10T00:14:39.021Z,100748.16
2022-09-10T00:19:40.724Z,100739.25
2022-09-10T00:24:42.456Z,100734.06
2022-09-10T00:29:45.432Z,100726.84
2022-09-10T00:34:47.851Z,100737.88
2022-09-10T00:39:49.543Z,100726.44
2022-09-10T00:45:05.803Z,100736.44
2022-09-10T00:50:16.587Z,100728.66
2022-09-10T00:55:19.328Z,100727.97
2022-09-10T01:00:23.075Z,100729.66
2022-09-10T01:05:25.816Z,100730.72
2022-09-10T01:10:30.940Z,100736.25
2022-09-10T01:15:42.237Z,100731.84
2022-09-10T01:20:58.005Z,100732.09
2022-09-10T01:26:12.066Z,100745.50
2022-09-10T01:31:23.145Z,100739.44
2022-09-10T01:36:29.907Z,100741.19
2022-09-10T01:41:31.647Z,100754.81
2022-09-10T01:46:43.325Z,100743.41
2022-09-10T01:52:03.648Z,100743.00
2022-09-10T01:57:14.969Z,100725.94
2022-09-10T02:02:23.401Z,100733.91
2022-09-10T02:07:27.821Z,100734.97
2022-09-10T02:12:29.767Z,100740.28
2022-09-10T02:17:35.600Z,100741.41
2022-09-10T02:22:39.613Z,100742.56
2022-09-10T02:27:41.295Z,100740.88
2022-09-10T02:32:44.393Z,100759.66
2022-09-10T02:37:46.367Z,100757.16
2022-09-10T02:42:48.058Z,100766.06
2022-09-10T02:47:51.052Z,100760.06
2022-09-10T02:52:52.747Z,100767.44
2022-09-10T02:57:54.868Z,100769.00
2022-09-10T03:03:02.828Z,100767.91
2022-09-10T03:08:05.586Z,100772.47
2022-09-10T03:13:07.337Z,100757.69
2022-09-10T03:18:10.412Z,100759.97
2022-09-10T03:23:12.186Z,100764.78
2022-09-10T03:28:13.894Z,100759.56
2022-09-10T03:33:16.920Z,100750.00
2022-09-10T03:38:18.804Z,100762.16
2022-09-10T03:43:20.855Z,100755.06
2022-09-10T03:48:23.880Z,100753.34
2022-09-10T03:53:25.809Z,100739.59
2022-09-10T03:58:27.506Z,100748.47
2022-09-10T04:03:30.789Z,100746.75
2022-09-10T04:08:32.451Z,100740.69
2022-09-10T04:13:34.163Z,100742.63
2022-09-10T04:18:37.557Z,100754.94
2022-09-10T04:23:39.737Z,100753.41
2022-09-10T04:28:41.848Z,100754.38
2022-09-10T04:33:45.258Z,100752.66
2022-09-10T04:38:47.442Z,100759.63
2022-09-10T04:43:49.435Z,100763.94
2022-09-10T04:48:52.436Z,100758.59
2022-09-10T04:53:54.176Z,100765.66
2022-09-10T04:58:55.767Z,100755.81
2022-09-10T05:03:59.069Z,100770.03
2022-09-10T05:09:00.729Z,100766.56
2022-09-10T05:14:03.179Z,100765.56
2022-09-10T05:19:06.785Z,100769.84
2022-09-10T05:24:09.191Z,100767.28
2022-09-10T05:29:11.366Z,100772.44
2022-09-10T05:34:14.821Z,100774.91
2022-09-10T05:39:16.680Z,100768.97
2022-09-10T05:44:18.308Z,100766.81
2022-09-10T05:49:21.620Z,100774.81
2022-09-10T05:54:23.408Z,100769.31
2022-09-10T05:59:25.064Z,100773.16
2022-09-10T06:04:28.557Z,100781.91
2022-09-10T06:09:30.178Z,100780.28
2022-09-10T06:14:32.266Z,100788.00
2022-09-10T06:19:35.461Z,100782.09
2022-09-10T06:24:37.468Z,100789.63
2022-09-10T06:29:39.407Z,100795.41
2022-09-10T06:34:42.406Z,100794.19
2022-09-10T06:39:44.265Z,100782.75
2022-09-10T06:44:45.869Z,100791.75
2022-09-10T06:49:48.824Z,100796.44
2022-09-10T06:54:50.565Z,100793.38
2022-09-10T06:59:52.725Z,100796.50
2022-09-10T07:04:55.668Z,100794.25
2022-09-10T07:09:57.440Z,100802.03
2022-09-10T07:14:59.537Z,100796.91
2022-09-10T07:20:03.109Z,100812.47
2022-09-10T07:25:06.103Z,100806.13
2022-09-10T07:30:08.979Z,100801.34
2022-09-10T07:35:12.165Z,100786.72
2022-09-10T07:40:14.512Z,100794.94
2022-09-10T07:45:16.455Z,100795.78
2022-09-10T07:50:19.878Z,100796.41
2022-09-10T07:55:21.604Z,100796.50
2022-09-10T08:00:23.233Z,100795.63
2022-09-10T08:05:26.223Z,100806.19
2022-09-10T08:10:28.025Z,100805.78
2022-09-10T08:15:29.641Z,100805.78
2022-09-10T08:20:32.634Z,100818.50
2022-09-10T08:25:34.546Z,100815.53
2022-09-10T08:30:36.235Z,100818.44
2022-09-10T08:35:39.230Z,100827.38
2022-09-10T08:40:42.101Z,100827.03
2022-09-10T08:45:49.292Z,100821.50
2022-09-10T08:50:57.063Z,100822.53
2022-09-10T08:56:02.245Z,100827.28
2022-09-10T09:01:05.403Z,100826.63
2022-09-10T09:06:16.579Z,100822.88
2022-09-10T09:11:29.016Z,100833.19
2022-09-10T09:16:41.928Z,100836.09
2022-09-10T09:21:50.998Z,100833.28
2022-09-10T09:26:59.257Z,100827.13
2022-09-10T09:32:05.231Z,100836.59
2022-09-10T09:37:15.777Z,100835.47
2022-09-10T09:42:24.526Z,100832.00
2022-09-10T09:47:26.190Z,100830.78
2022-09-10T09:52:31.509Z,100828.78
2022-09-10T09:57:33.296Z,100823.47
2022-09-10T10:02:36.886Z,100811.41
2022-09-10T10:07:40.080Z,100822.97
2022-09-10T10:12:49.599Z,100809.75
2022-09-10T10:17:51.320Z,100808.94
2022-09-10T10:22:54.373Z,100807.00
2022-09-10T10:27:56.473Z,100806.16
2022-09-10T10:32:59.518Z,100805.63
2022-09-10T10:38:19.845Z,100792.75
2022-09-10T10:43:35.076Z,100789.38
2022-09-10T10:48:51.156Z,100781.88
2022-09-10T10:54:10.178Z,100780.47
2022-09-10T10:59:24.152Z,100781.94
2022-09-10T11:04:34.332Z,100778.03
2022-09-10T11:09:42.834Z,100770.53
2022-09-10T11:14:49.540Z,100779.09
2022-09-10T11:20:24.578Z,100770.44
2022-09-10T11:25:28.893Z,100769.06
2022-09-10T11:30:33.651Z,100760.34
2022-09-10T11:35:41.199Z,100760.69
2022-09-10T11:40:50.185Z,100757.19
2022-09-10T11:45:56.812Z,100761.09
2022-09-10T11:51:03.355Z,100764.06
2022-09-10T11:56:48.029Z,100758.47
2022-09-10T12:02:28.120Z,100751.63
2022-09-10T12:07:45.602Z,100746.78
2022-09-10T12:12:49.641Z,100748.78
2022-09-10T12:17:56.400Z,100738.47
2022-09-10T12:22:59.180Z,100745.78
2022-09-10T12:28:04.635Z,100748.38
2022-09-10T12:33:57.791Z,100746.06
2022-09-10T12:39:21.539Z,100740.13
2022-09-10T12:44:43.011Z,100735.69
2022-09-10T12:49:46.330Z,100736.66
2022-09-10T12:54:57.151Z,100740.91
2022-09-10T13:00:24.755Z,100739.56
2022-09-10T13:05:30.940Z,100731.69
2022-09-10T13:10:33.571Z,100720.06
2022-09-10T13:15:39.197Z,100730.88
2022-09-10T13:20:41.308Z,100727.28
2022-09-10T13:25:45.441Z,100724.97
2022-09-10T13:30:58.213Z,100721.50
2022-09-10T13:36:16.558Z,100724.09
2022-09-10T13:41:40.440Z,100722.50
2022-09-10T13:46:47.455Z,100725.59
2022-09-10T13:51:52.257Z,100724.28
2022-09-10T13:56:55.555Z,100722.09
2022-09-10T14:01:58.819Z,100711.53
2022-09-10T14:07:05.235Z,100714.16
2022-09-10T14:12:09.411Z,100723.22
2022-09-10T14:17:16.050Z,100726.22
2022-09-10T14:22:19.769Z,100719.56
2022-09-10T14:27:26.667Z,100724.16
2022-09-10T14:32:31.593Z,100720.22
2022-09-10T14:37:35.292Z,100722.66
2022-09-10T14:42:37.264Z,100726.16
2022-09-10T14:47:51.766Z,100721.97
2022-09-10T14:52:53.791Z,100716.09
2022-09-10T14:57:56.314Z,100716.22
2022-09-10T15:02:59.954Z,100711.13
2022-09-10T15:08:02.921Z,100713.59
2022-09-10T15:13:05.547Z,100718.09
2022-09-10T15:18:12.051Z,100721.78
2022-09-10T15:23:14.101Z,100724.72
2022-09-10T15:28:16.586Z,100716.78
2022-09-10T15:33:20.142Z,100713.22
2022-09-10T15:38:22.208Z,100718.59
2022-09-10T15:43:24.180Z,100721.81
2022-09-10T15:48:27.149Z,100723.19
2022-09-10T15:53:29.698Z,100721.84
2022-09-10T15:58:31.358Z,100729.94
2022-09-10T16:03:34.877Z,100738.94
2022-09-10T16:08:36.668Z,100738.97
2022-09-10T16:13:38.477Z,100728.66
2022-09-10T16:18:41.791Z,100729.63
2022-09-10T16:23:43.683Z,100728.25
2022-09-10T16:28:49.108Z,100745.72
2022-09-10T16:34:00.150Z,100750.41
2022-09-10T16:39:02.289Z,100740.72
2022-09-10T16:44:04.898Z,100752.28
2022-09-10T16:49:11.149Z,100753.81
2022-09-10T16:54:14.959Z,100762.75
2022-09-10T16:59:18.842Z,100769.28
2022-09-10T17:04:28.170Z,100777.28
2022-09-10T17:09:30.969Z,100780.66
2022-09-10T17:14:32.764Z,100767.63
2022-09-10T17:19:36.168Z,100774.16
2022-09-10T17:24:38.049Z,100761.19
2022-09-10T17:29:39.702Z,100762.00
2022-09-10T17:34:43.057Z,100763.06
2022-09-10T17:39:44.900Z,100772.31
2022-09-10T17:44:49.211Z,100769.56
2022-09-10T17:49:52.597Z,100780.38
2022-09-10T17:54:54.967Z,100789.56
2022-09-10T17:59:59.199Z,100797.91
2022-09-10T18:05:02.448Z,100802.28
2022-09-10T18:10:04.889Z,100809.06
2022-09-10T18:15:07.182Z,100812.13
2022-09-10T18:20:10.668Z,100814.31
2022-09-10T18:25:12.302Z,100797.81
2022-09-10T18:30:14.005Z,100813.19
2022-09-10T18:35:17.247Z,100821.66
2022-09-10T18:40:19.278Z,100817.78
2022-09-10T18:45:20.928Z,100822.56
2022-09-10T18:50:23.987Z,100821.34
2022-09-10T18:55:25.939Z,100816.53
2022-09-10T19:00:27.729Z,100819.00
2022-09-10T19:05:31.130Z,100821.81
2022-09-10T19:10:33.108Z,100817.84
2022-09-10T19:15:35.252Z,100813.72
2022-09-10T19:20:38.284Z,100811.97
2022-09-10T19:25:40.226Z,100811.59
2022-09-10T19:30:42.274Z,100811.09
2022-09-10T19:35:45.787Z,100810.59
2022-09-10T19:40:47.830Z,100812.56
2022-09-10T19:45:54.593Z,100810.88
2022-09-10T19:50:58.045Z,100806.81
2022-09-10T19:56:03.574Z,100806.38
2022-09-10T20:01:09.468Z,100798.25
2022-09-10T20:06:14.869Z,100813.38
2022-09-10T20:11:20.395Z,100806.44
2022-09-10T20:16:22.927Z,100807.78
2022-09-10T20:21:28.418Z,100810.88
2022-09-10T20:26:31.717Z,100813.84
2022-09-10T20:31:35.663Z,100813.44
2022-09-10T20:36:39.565Z,100831.34
2022-09-10T20:41:41.936Z,100819.97
2022-09-10T20:46:44.361Z,100825.47
2022-09-10T20:51:47.704Z,100825.38
2022-09-10T20:56:49.857Z,100827.34
2022-09-10T21:01:51.805Z,100818.13
2022-09-10T21:06:55.158Z,100823.59
2022-09-10T21:11:56.776Z,100824.63
2022-09-10T21:16:59.176Z,100838.28
2022-09-10T21:22:02.300Z,100838.34
2022-09-10T21:27:04.697Z,100820.81
2022-09-10T21:32:06.712Z,100836.88
2022-09-10T21:37:10.169Z,100837.03
2022-09-10T21:42:11.967Z,100844.94
2022-09-10T21:47:14.042Z,100851.47
2022-09-10T21:52:17.221Z,100852.38
2022-09-10T21:57:19.435Z,100849.06
2022-09-10T22:02:21.368Z,100850.00
2022-09-10T22:07:24.806Z,100853.41
2022-09-10T22:12:26.994Z,100852.56
2022-09-10T22:17:28.996Z,100854.34
2022-09-10T22:22:34.442Z,100845.88
2022-09-10T22:27:36.384Z,100851.34
2022-09-10T22:32:38.425Z,100835.41
2022-09-10T22:37:41.712Z,100844.19
2022-09-10T22:42:43.579Z,100855.00
2022-09-10T22:47:45.891Z,100849.81
2022-09-10T22:52:49.246Z,100862.22
2022-09-10T22:57:51.394Z,100866.63
2022-09-10T23:02:53.492Z,100861.31
2022-09-10T23:07:57.045Z,100869.22
2022-09-10T23:12:59.051Z,100865.47
2022-09-10T23:18:00.692Z,100868.09
2022-09-10T23:23:04.042Z,100876.00
2022-09-10T23:28:07.400Z,100874.13
2022-09-10T23:33:09.086Z,100879.38
2022-09-10T23:38:12.312Z,100876.56
2022-09-10T23:43:14.434Z,100895.81
2022-09-10T23:48:16.518Z,100888.91
2022-09-10T23:53:21.430Z,100884.59
2022-09-10T23:58:23.962Z,100888.03
